createdAt,value
2022-10-04T00:00:45.810Z,32.40
2022-10-04T00:04:09.311Z,32.40
2022-10-04T00:07:14.275Z,32.40
2022-10-04T00:10:21.249Z,32.50
2022-10-04T00:13:26.663Z,32.50
2022-10-04T00:16:38.489Z,32.40
2022-10-04T00:19:47.124Z,32.30
2022-10-04T00:23:29.498Z,32.40
2022-10-04T00:26:31.453Z,32.40
2022-10-04T00:29:36.559Z,32.50
2022-10-04T00:32:44.176Z,32.50
2022-10-04T00:35:48.581Z,32.20
2022-10-04T00:39:37.370Z,32.20
2022-10-04T00:42:45.466Z,32.20
2022-10-04T00:45:51.908Z,32.30
2022-10-04T00:49:00.751Z,32.30
2022-10-04T00:52:20.010Z,32.30
2022-10-04T00:55:51.522Z,32.40
2022-10-04T00:58:59.185Z,32.30
2022-10-04T01:02:26.265Z,32.30
2022-10-04T01:05:41.750Z,32.30
2022-10-04T01:08:55.053Z,32.30
2022-10-04T01:12:17.474Z,32.10
2022-10-04T01:15:28.974Z,32.30
2022-10-04T01:18:34.861Z,32.30
2022-10-04T01:21:39.846Z,32.30
2022-10-04T01:24:43.977Z,32.30
2022-10-04T01:27:46.091Z,32.40
2022-10-04T01:30:48.218Z,32.30
2022-10-04T01:33:50.803Z,32.30
2022-10-04T01:36:59.149Z,32.40
2022-10-04T01:40:01.500Z,32.30
2022-10-04T01:43:11.376Z,32.40
2022-10-04T01:46:32.880Z,32.30
2022-10-04T01:49:38.446Z,32.30
2022-10-04T01:52:46.984Z,32.30
2022-10-04T01:55:53.569Z,32.30
2022-10-04T01:59:03.057Z,32.20
2022-10-04T02:02:21.683Z,32.20
2022-10-04T02:05:38.492Z,32.20
2022-10-04T02:08:49.446Z,32.20
2022-10-04T02:11:54.085Z,32.20
2022-10-04T02:14:58.123Z,32.20
2022-10-04T02:18:00.525Z,32.20
2022-10-04T02:21:05.976Z,32.20
2022-10-04T02:24:10.254Z,32.20
2022-10-04T02:27:12.748Z,32.20
2022-10-04T02:30:15.030Z,32.20
2022-10-04T02:33:17.023Z,32.20
2022-10-04T02:36:23.824Z,32.20
2022-10-04T02:39:30.646Z,32.20
2022-10-04T02:42:43.270Z,32.20
2022-10-04T02:46:00.942Z,32.10
2022-10-04T02:49:13.250Z,32.20
2022-10-04T02:52:23.822Z,32.30
2022-10-04T02:55:30.339Z,32.40
2022-10-04T02:58:32.844Z,32.50
2022-10-04T03:01:54.010Z,32.50
2022-10-04T03:05:19.027Z,32.60
2022-10-04T03:08:21.315Z,32.60
2022-10-04T03:11:27.373Z,32.60
2022-10-04T03:14:29.976Z,32.60
2022-10-04T03:17:32.601Z,32.60
2022-10-04T03:20:38.656Z,32.60
2022-10-04T03:23:42.247Z,32.50
2022-10-04T03:26:53.771Z,32.50
2022-10-04T03:29:59.135Z,32.40
2022-10-04T03:33:01.711Z,32.40
2022-10-04T03:36:03.812Z,32.20
2022-10-04T03:39:09.435Z,32.20
2022-10-04T03:42:15.854Z,32.10
2022-10-04T03:45:20.739Z,32.10
2022-10-04T03:48:34.204Z,32.00
2022-10-04T03:51:36.348Z,32.10
2022-10-04T03:54:38.767Z,32.00
2022-10-04T03:57:41.491Z,32.00
2022-10-04T04:00:57.060Z,31.90
2022-10-04T04:04:01.933Z,31.80
2022-10-04T04:07:15.835Z,32.00
2022-10-04T04:10:28.222Z,32.10
2022-10-04T04:13:46.292Z,32.20
2022-10-04T04:16:48.744Z,32.30
2022-10-04T04:19:51.041Z,32.50
2022-10-04T04:23:17.882Z,32.40
2022-10-04T04:26:35.000Z,32.40
2022-10-04T04:29:48.484Z,32.60
2022-10-04T04:32:54.409Z,32.80
2022-10-04T04:36:04.645Z,32.50
2022-10-04T04:39:34.429Z,32.30
2022-10-04T04:42:37.500Z,32.20
2022-10-04T04:45:39.577Z,32.20
2022-10-04T04:48:45.215Z,32.30
2022-10-04T04:51:51.091Z,32.40
2022-10-04T04:54:54.352Z,32.40
2022-10-04T04:57:58.736Z,32.40
2022-10-04T05:01:04.562Z,32.10
2022-10-04T05:04:21.632Z,31.80
2022-10-04T05:07:24.991Z,32.10
2022-10-04T05:10:34.665Z,32.10
2022-10-04T05:13:42.108Z,32.00
2022-10-04T05:16:55.876Z,32.20
2022-10-04T05:20:01.080Z,31.90
2022-10-04T05:23:03.092Z,31.80
2022-10-04T05:26:11.636Z,32.00
2022-10-04T05:29:20.107Z,32.20
2022-10-04T05:32:33.642Z,32.30
2022-10-04T05:35:50.845Z,32.50
2022-10-04T05:38:56.933Z,32.40
2022-10-04T05:42:11.202Z,32.40
2022-10-04T05:45:17.384Z,32.30
2022-10-04T05:48:19.726Z,32.50
2022-10-04T05:51:24.051Z,32.60
2022-10-04T05:54:28.439Z,32.50
2022-10-04T05:57:39.402Z,32.60
2022-10-04T06:01:08.725Z,32.30
2022-10-04T06:04:19.843Z,32.20
2022-10-04T06:07:34.465Z,32.20
2022-10-04T06:10:46.711Z,32.20
2022-10-04T06:14:30.606Z,32.40
2022-10-04T06:18:01.950Z,32.30
2022-10-04T06:21:25.625Z,32.30
2022-10-04T06:24:37.252Z,32.60
2022-10-04T06:27:54.157Z,32.80
2022-10-04T06:31:27.962Z,33.00
2022-10-04T06:34:45.045Z,33.30
2022-10-04T06:37:52.943Z,33.40
2022-10-04T06:41:01.201Z,33.20
2022-10-04T06:44:18.826Z,32.60
2022-10-04T06:47:49.633Z,32.60
2022-10-04T06:51:03.482Z,32.50
2022-10-04T06:54:18.816Z,33.00
2022-10-04T06:57:39.434Z,33.30
2022-10-04T07:01:04.642Z,32.60
2022-10-04T07:05:06.376Z,32.50
2022-10-04T07:08:34.060Z,33.00
2022-10-04T07:11:45.858Z,33.50
2022-10-04T07:14:53.805Z,33.80
2022-10-04T07:17:58.680Z,34.00
2022-10-04T07:21:07.801Z,34.10
2022-10-04T07:24:18.707Z,34.50
2022-10-04T07:27:41.449Z,34.70
2022-10-04T07:30:56.559Z,34.70
2022-10-04T07:34:06.707Z,34.90
2022-10-04T07:37:12.861Z,34.70
2022-10-04T07:41:03.744Z,34.50
2022-10-04T07:44:32.162Z,34.70
2022-10-04T07:47:34.266Z,34.60
2022-10-04T07:50:42.974Z,34.10
2022-10-04T07:54:02.805Z,34.00
2022-10-04T07:57:22.538Z,33.80
2022-10-04T08:00:32.395Z,33.80
2022-10-04T08:03:52.208Z,33.40
2022-10-04T08:07:07.452Z,32.50
2022-10-04T08:10:24.010Z,32.60
2022-10-04T08:14:16.157Z,32.60
2022-10-04T08:17:47.821Z,33.10
2022-10-04T08:20:59.874Z,32.40
2022-10-04T08:24:18.084Z,32.70
2022-10-04T08:28:09.613Z,32.60
2022-10-04T08:31:21.514Z,33.40
2022-10-04T08:34:29.248Z,33.90
2022-10-04T08:37:40.189Z,34.30
2022-10-04T08:41:07.921Z,34.50
2022-10-04T08:44:45.122Z,34.50
2022-10-04T08:48:31.593Z,34.70
2022-10-04T08:51:53.899Z,35.30
2022-10-04T08:55:35.044Z,35.70
2022-10-04T08:58:52.232Z,35.10
2022-10-04T09:02:35.379Z,35.10
2022-10-04T09:06:12.659Z,34.80
2022-10-04T09:09:34.925Z,34.90
2022-10-04T09:12:44.421Z,35.20
2022-10-04T09:15:51.837Z,35.40
2022-10-04T09:19:32.915Z,35.40
2022-10-04T09:22:59.214Z,35.00
2022-10-04T09:26:06.423Z,35.00
2022-10-04T09:29:27.390Z,35.30
2022-10-04T09:32:50.209Z,35.10
2022-10-04T09:36:16.324Z,34.50
2022-10-04T09:39:31.148Z,34.30
2022-10-04T09:43:05.085Z,34.40
2022-10-04T09:46:19.349Z,34.80
2022-10-04T09:49:37.370Z,34.80
2022-10-04T09:52:54.105Z,34.70
2022-10-04T09:56:32.650Z,34.70
2022-10-04T09:59:37.537Z,34.60
2022-10-04T10:03:15.772Z,34.70
2022-10-04T10:06:46.664Z,34.70
2022-10-04T10:10:18.104Z,34.70
2022-10-04T10:13:45.088Z,34.50
2022-10-04T10:17:00.936Z,34.80
2022-10-04T10:20:23.127Z,34.90
2022-10-04T10:23:53.887Z,35.30
2022-10-04T10:27:25.264Z,35.40
2022-10-04T10:31:19.389Z,35.50
2022-10-04T10:34:53.313Z,34.40
2022-10-04T10:38:24.493Z,34.70
2022-10-04T10:42:03.539Z,35.10
2022-10-04T10:45:24.091Z,34.70
2022-10-04T10:48:34.798Z,34.80
2022-10-04T10:52:25.483Z,35.00
2022-10-04T10:56:00.818Z,35.10
2022-10-04T10:59:37.551Z,35.00
2022-10-04T11:03:12.667Z,34.90
2022-10-04T11:06:49.335Z,35.20
2022-10-04T11:10:18.641Z,35.70
2022-10-04T11:13:29.454Z,35.60
2022-10-04T11:16:34.329Z,35.40
2022-10-04T11:20:11.704Z,35.00
2022-10-04T11:23:33.508Z,34.70
2022-10-04T11:27:01.208Z,34.90
2022-10-04T11:30:26.747Z,34.40
2022-10-04T11:34:05.325Z,34.40
2022-10-04T11:37:33.184Z,34.80
2022-10-04T11:40:59.031Z,34.80
2022-10-04T11:44:34.514Z,35.20
2022-10-04T11:48:00.227Z,35.10
2022-10-04T11:51:41.185Z,34.70
2022-10-04T11:55:10.709Z,34.10
2022-10-04T11:58:35.522Z,34.30
2022-10-04T12:02:07.099Z,34.00
2022-10-04T12:05:49.833Z,34.30
2022-10-04T12:09:13.679Z,35.00
2022-10-04T12:12:36.696Z,35.20
2022-10-04T12:16:06.188Z,35.30
2022-10-04T12:19:32.814Z,35.60
2022-10-04T12:23:00.598Z,35.80
2022-10-04T12:26:19.030Z,36.20
2022-10-04T12:29:43.402Z,36.00
2022-10-04T12:32:57.804Z,35.90
2022-10-04T12:36:15.647Z,36.10
2022-10-04T12:40:11.982Z,36.10
2022-10-04T12:43:44.311Z,36.20
2022-10-04T12:46:53.031Z,36.20
2022-10-04T12:50:26.187Z,36.00
2022-10-04T12:53:58.869Z,36.10
2022-10-04T12:57:19.754Z,36.20
2022-10-04T13:00:22.849Z,36.40
2022-10-04T13:04:02.534Z,35.60
2022-10-04T13:07:16.552Z,34.90
2022-10-04T13:10:28.979Z,35.30
2022-10-04T13:13:53.068Z,35.00
2022-10-04T13:21:05.106Z,35.10
2022-10-04T13:25:00.932Z,35.40
2022-10-04T13:28:21.367Z,35.60
2022-10-04T13:31:34.761Z,35.90
2022-10-04T13:34:54.856Z,36.30
2022-10-04T13:38:18.706Z,36.60
2022-10-04T13:41:48.551Z,36.40
2022-10-04T13:45:09.119Z,36.60
2022-10-04T13:48:51.849Z,36.60
2022-10-04T13:52:48.899Z,36.50
2022-10-04T13:56:40.130Z,36.00
2022-10-04T13:59:51.100Z,35.90
2022-10-04T14:03:26.262Z,35.70
2022-10-04T14:07:37.333Z,35.70
2022-10-04T14:11:01.835Z,35.10
2022-10-04T14:14:27.660Z,34.70
2022-10-04T14:18:01.197Z,34.20
2022-10-04T14:21:19.217Z,34.00
2022-10-04T14:24:47.118Z,33.90
2022-10-04T14:28:10.025Z,33.60
2022-10-04T14:31:21.221Z,33.70
2022-10-04T14:34:58.624Z,33.70
2022-10-04T14:38:13.219Z,33.70
2022-10-04T14:41:51.809Z,33.70
2022-10-04T14:45:32.918Z,33.70
2022-10-04T14:48:59.291Z,34.00
2022-10-04T14:52:38.637Z,33.70
2022-10-04T14:56:29.607Z,33.60
2022-10-04T14:59:58.046Z,33.80
2022-10-04T15:03:28.888Z,34.10
2022-10-04T15:06:49.525Z,34.20
2022-10-04T15:10:10.280Z,34.20
2022-10-04T15:13:37.044Z,34.50
2022-10-04T15:17:11.195Z,34.60
2022-10-04T15:20:51.382Z,34.80
2022-10-04T15:23:57.511Z,35.00
2022-10-04T15:27:31.251Z,35.00
2022-10-04T15:30:57.954Z,35.00
2022-10-04T15:34:33.712Z,35.10
2022-10-04T15:37:44.250Z,35.10
2022-10-04T15:41:21.011Z,35.10
2022-10-04T15:44:44.780Z,35.10
2022-10-04T15:48:10.342Z,35.00
2022-10-04T15:51:42.394Z,34.90
2022-10-04T15:55:02.461Z,34.80
2022-10-04T15:58:26.102Z,34.80
2022-10-04T16:01:47.559Z,34.60
2022-10-04T16:05:14.265Z,34.50
2022-10-04T16:08:35.080Z,34.30
2022-10-04T16:12:06.350Z,34.20
2022-10-04T16:15:19.432Z,34.10
2022-10-04T16:18:45.350Z,34.00
2022-10-04T16:21:47.476Z,34.00
2022-10-04T16:24:53.733Z,33.80
2022-10-04T16:27:58.769Z,33.70
2022-10-04T16:31:22.899Z,33.70
2022-10-04T16:34:48.078Z,33.50
2022-10-04T16:37:56.654Z,33.40
2022-10-04T16:41:09.398Z,33.40
2022-10-04T16:44:32.439Z,33.40
2022-10-04T16:47:50.573Z,33.40
2022-10-04T16:51:22.331Z,33.40
2022-10-04T16:55:19.537Z,33.20
2022-10-04T16:58:27.396Z,33.10
2022-10-04T17:02:03.457Z,33.00
2022-10-04T17:05:21.148Z,33.00
2022-10-04T17:08:30.056Z,32.90
2022-10-04T17:11:41.896Z,32.90
2022-10-04T17:14:56.522Z,32.70
2022-10-04T17:18:12.604Z,32.50
2022-10-04T17:21:53.111Z,32.40
2022-10-04T17:25:00.717Z,32.30
2022-10-04T17:28:17.581Z,32.10
2022-10-04T17:31:48.854Z,32.00
2022-10-04T17:35:30.258Z,32.10
2022-10-04T17:39:06.990Z,32.00
2022-10-04T17:42:52.273Z,32.10
2022-10-04T17:46:03.313Z,32.30
2022-10-04T17:49:39.803Z,32.70
2022-10-04T17:53:04.720Z,32.80
2022-10-04T17:56:09.127Z,32.90
2022-10-04T17:59:16.305Z,32.90
2022-10-04T18:02:28.926Z,32.90
2022-10-04T18:05:46.322Z,32.90
2022-10-04T18:08:57.459Z,32.90
2022-10-04T18:12:06.595Z,32.90
2022-10-04T18:15:40.922Z,32.80
2022-10-04T18:18:45.726Z,32.80
2022-10-04T18:21:54.233Z,32.90
2022-10-04T18:25:23.993Z,32.80
2022-10-04T18:28:26.317Z,32.80
2022-10-04T18:31:41.920Z,32.90
2022-10-04T18:34:53.426Z,32.90
2022-10-04T18:38:29.912Z,32.90
2022-10-04T18:41:51.456Z,32.90
2022-10-04T18:44:57.242Z,33.00
2022-10-04T18:48:03.131Z,33.00
2022-10-04T18:51:30.746Z,33.00
2022-10-04T18:54:48.719Z,33.00
2022-10-04T18:58:33.886Z,33.10
2022-10-04T19:02:00.064Z,33.10
2022-10-04T19:05:21.143Z,33.00
2022-10-04T19:08:29.991Z,33.00
2022-10-04T19:11:56.589Z,33.00
2022-10-04T19:15:17.468Z,32.90
2022-10-04T19:18:47.106Z,32.80
2022-10-04T19:22:16.422Z,32.80
2022-10-04T19:25:40.974Z,32.80
2022-10-04T19:28:43.651Z,32.60
2022-10-04T19:32:13.977Z,32.60
2022-10-04T19:36:08.583Z,32.40
2022-10-04T19:39:47.359Z,32.40
2022-10-04T19:43:26.008Z,32.30
2022-10-04T19:46:46.669Z,32.40
2022-10-04T19:50:03.024Z,32.60
2022-10-04T19:53:23.560Z,32.60
2022-10-04T19:56:32.574Z,32.60
2022-10-04T19:59:43.154Z,32.70
2022-10-04T20:02:48.726Z,32.70
2022-10-04T20:05:57.662Z,32.70
2022-10-04T20:09:28.851Z,32.60
2022-10-04T20:12:41.579Z,32.60
2022-10-04T20:15:53.296Z,32.60
2022-10-04T20:19:03.053Z,32.60
2022-10-04T20:22:08.298Z,32.60
2022-10-04T20:25:10.477Z,32.60
2022-10-04T20:28:32.704Z,32.60
2022-10-04T20:31:40.634Z,32.60
2022-10-04T20:34:54.428Z,32.60
2022-10-04T20:38:27.795Z,32.60
2022-10-04T20:41:29.673Z,32.60
2022-10-04T20:44:56.273Z,32.60
2022-10-04T20:47:59.169Z,32.50
2022-10-04T20:51:10.697Z,32.50
2022-10-04T20:54:20.212Z,32.50
2022-10-04T20:57:24.858Z,32.30
2022-10-04T21:00:29.209Z,32.20
2022-10-04T21:03:31.196Z,32.20
2022-10-04T21:06:54.086Z,32.20
2022-10-04T21:10:17.234Z,32.20
2022-10-04T21:13:41.701Z,32.30
2022-10-04T21:16:47.009Z,32.20
2022-10-04T21:19:50.235Z,32.20
2022-10-04T21:23:08.412Z,32.20
2022-10-04T21:26:24.611Z,32.10
2022-10-04T21:29:26.471Z,32.10
2022-10-04T21:32:36.991Z,32.10
2022-10-04T21:35:38.840Z,32.10
2022-10-04T21:38:41.103Z,32.10
2022-10-04T21:41:43.204Z,32.10
2022-10-04T21:44:45.273Z,32.00
2022-10-04T21:47:47.128Z,32.10
2022-10-04T21:50:51.475Z,32.00
2022-10-04T21:53:53.532Z,32.10
2022-10-04T21:56:55.620Z,32.00
2022-10-04T21:59:57.566Z,32.00
2022-10-04T22:03:00.038Z,32.00
2022-10-04T22:06:01.912Z,32.00
2022-10-04T22:09:04.313Z,32.00
2022-10-04T22:12:06.338Z,32.00
2022-10-04T22:15:09.028Z,32.00
2022-10-04T22:18:11.178Z,32.00
2022-10-04T22:21:13.244Z,32.00
2022-10-04T22:24:20.125Z,32.00
2022-10-04T22:27:22.183Z,32.00
2022-10-04T22:30:27.820Z,32.00
2022-10-04T22:33:40.368Z,32.00
2022-10-04T22:36:42.352Z,32.00
2022-10-04T22:39:44.579Z,32.00
2022-10-04T22:42:50.669Z,32.00
2022-10-04T22:45:54.365Z,32.00
2022-10-04T22:48:56.223Z,32.00
2022-10-04T22:52:00.609Z,31.90
2022-10-04T22:55:03.081Z,31.80
2022-10-04T22:58:05.348Z,31.70
2022-10-04T23:01:16.403Z,31.60
2022-10-04T23:04:24.590Z,31.60
2022-10-04T23:07:26.535Z,31.60
2022-10-04T23:10:30.695Z,31.60
2022-10-04T23:13:33.678Z,31.50
2022-10-04T23:16:36.775Z,31.50
2022-10-04T23:19:38.718Z,31.50
2022-10-04T23:22:52.953Z,31.50
2022-10-04T23:25:56.189Z,31.50
2022-10-04T23:28:59.209Z,31.50
2022-10-04T23:32:14.130Z,31.60
2022-10-04T23:35:23.210Z,31.60
2022-10-04T23:38:26.572Z,31.60
2022-10-04T23:41:28.961Z,31.50
2022-10-04T23:44:35.665Z,31.40
2022-10-04T23:47:37.971Z,31.60
2022-10-04T23:50:41.012Z,31.70
2022-10-04T23:53:44.635Z,31.70
2022-10-04T23:56:47.923Z,31.70
2022-10-04T23:59:50.808Z,31.70
